createdAt,value
2023-03-11T00:00:47.261Z,86.20
2023-03-11T00:03:17.315Z,85.70
2023-03-11T00:05:45.754Z,85.89
2023-03-11T00:08:17.995Z,84.71
2023-03-11T00:10:47.883Z,84.50
2023-03-11T00:13:16.262Z,83.93
2023-03-11T00:15:48.659Z,84.91
2023-03-11T00:18:16.457Z,84.31
2023-03-11T00:20:46.299Z,84.72
2023-03-11T00:23:14.958Z,84.67
2023-03-11T00:25:45.503Z,84.88
2023-03-11T00:28:14.204Z,83.95
2023-03-11T00:30:42.769Z,85.16
2023-03-11T00:33:13.237Z,84.56
2023-03-11T00:35:41.605Z,82.99
2023-03-11T00:38:13.758Z,84.65
2023-03-11T00:40:41.084Z,85.06
2023-03-11T00:43:08.121Z,85.25
2023-03-11T00:45:36.561Z,85.52
2023-03-11T00:48:04.639Z,85.37
2023-03-11T00:50:35.133Z,84.90
2023-03-11T00:53:04.185Z,85.61
2023-03-11T00:55:33.493Z,85.05
2023-03-11T00:58:06.667Z,83.28
2023-03-11T01:00:52.530Z,85.17
2023-03-11T01:03:19.482Z,85.82
2023-03-11T01:05:46.405Z,86.13
2023-03-11T01:08:13.324Z,85.42
2023-03-11T01:10:40.237Z,86.05
2023-03-11T01:13:07.185Z,86.08
2023-03-11T01:15:37.674Z,85.74
2023-03-11T01:18:06.214Z,84.37
2023-03-11T01:20:36.206Z,85.62
2023-03-11T01:23:03.448Z,84.67
2023-03-11T01:25:30.470Z,85.83
2023-03-11T01:27:59.252Z,86.13
2023-03-11T01:30:28.465Z,85.32
2023-03-11T01:32:57.757Z,85.37
2023-03-11T01:35:27.282Z,85.62
2023-03-11T01:37:54.806Z,85.41
2023-03-11T01:40:28.653Z,85.47
2023-03-11T01:42:57.797Z,85.81
2023-03-11T01:45:42.648Z,84.64
2023-03-11T01:48:11.726Z,85.09
2023-03-11T01:50:46.381Z,85.41
2023-03-11T01:53:15.890Z,85.66
2023-03-11T01:55:45.128Z,85.73
2023-03-11T01:58:24.331Z,85.50
2023-03-11T02:00:52.381Z,86.61
2023-03-11T02:03:27.406Z,85.89
2023-03-11T02:05:57.142Z,85.24
2023-03-11T02:08:24.302Z,85.96
2023-03-11T02:10:53.111Z,86.02
2023-03-11T02:13:20.727Z,85.67
2023-03-11T02:15:47.763Z,86.03
2023-03-11T02:18:20.094Z,85.97
2023-03-11T02:21:11.477Z,84.87
2023-03-11T02:24:13.422Z,84.68
2023-03-11T02:26:59.966Z,84.90
2023-03-11T02:29:29.780Z,86.29
2023-03-11T02:31:59.618Z,86.69
2023-03-11T02:34:30.692Z,86.08
2023-03-11T02:36:59.136Z,86.85
2023-03-11T02:39:33.921Z,85.80
2023-03-11T02:42:07.427Z,86.22
2023-03-11T02:44:35.061Z,86.14
2023-03-11T02:47:02.594Z,86.43
2023-03-11T02:49:31.159Z,86.20
2023-03-11T02:51:58.142Z,86.47
2023-03-11T02:54:25.160Z,86.73
2023-03-11T02:56:52.182Z,86.46
2023-03-11T02:59:19.153Z,86.08
2023-03-11T03:01:46.271Z,86.60
2023-03-11T03:04:13.419Z,86.90
2023-03-11T03:06:40.453Z,86.54
2023-03-11T03:09:07.821Z,86.50
2023-03-11T03:11:34.769Z,86.55
2023-03-11T03:14:01.930Z,86.94
2023-03-11T03:16:28.930Z,86.58
2023-03-11T03:18:55.941Z,87.01
2023-03-11T03:21:22.869Z,86.62
2023-03-11T03:23:49.842Z,86.42
2023-03-11T03:26:16.929Z,86.49
2023-03-11T03:28:47.576Z,86.54
2023-03-11T03:31:15.072Z,86.96
2023-03-11T03:33:46.049Z,84.75
2023-03-11T03:36:15.214Z,86.15
2023-03-11T03:38:45.926Z,86.75
2023-03-11T03:41:16.329Z,86.19
2023-03-11T03:43:44.487Z,86.84
2023-03-11T03:46:12.198Z,86.72
2023-03-11T03:48:43.169Z,86.63
2023-03-11T03:51:14.203Z,86.65
2023-03-11T03:53:48.596Z,87.14
2023-03-11T03:56:18.371Z,86.85
2023-03-11T03:58:45.397Z,87.05
2023-03-11T04:01:13.065Z,87.33
2023-03-11T04:03:41.320Z,87.12
2023-03-11T04:06:29.851Z,86.02
2023-03-11T04:09:03.783Z,86.99
2023-03-11T04:11:33.741Z,87.02
2023-03-11T04:14:02.508Z,86.97
2023-03-11T04:16:30.632Z,87.03
2023-03-11T04:19:05.585Z,86.48
2023-03-11T04:21:33.808Z,87.09
2023-03-11T04:24:01.585Z,86.82
2023-03-11T04:26:33.097Z,87.00
2023-03-11T04:29:00.673Z,86.81
2023-03-11T04:31:30.863Z,86.83
2023-03-11T04:34:00.326Z,86.78
2023-03-11T04:36:27.808Z,87.34
2023-03-11T04:38:57.775Z,86.97
2023-03-11T04:41:26.739Z,87.11
2023-03-11T04:43:54.310Z,87.37
2023-03-11T04:46:21.317Z,87.22
2023-03-11T04:48:48.944Z,87.40
2023-03-11T04:51:15.963Z,87.60
2023-03-11T04:53:43.107Z,87.21
2023-03-11T04:56:10.829Z,87.34
2023-03-11T04:58:39.043Z,87.48
2023-03-11T05:01:06.427Z,87.51
2023-03-11T05:03:33.530Z,87.59
2023-03-11T05:06:00.610Z,87.49
2023-03-11T05:08:27.630Z,87.37
2023-03-11T05:10:54.719Z,87.42
2023-03-11T05:13:22.908Z,87.52
2023-03-11T05:15:51.753Z,87.83
2023-03-11T05:18:18.737Z,87.74
2023-03-11T05:20:51.774Z,87.13
2023-03-11T05:23:21.975Z,87.59
2023-03-11T05:25:49.017Z,87.76
2023-03-11T05:28:16.200Z,87.52
2023-03-11T05:30:50.446Z,87.72
2023-03-11T05:33:18.280Z,87.37
2023-03-11T05:35:46.029Z,87.57
2023-03-11T05:38:13.644Z,87.11
2023-03-11T05:40:43.191Z,87.24
2023-03-11T05:43:10.217Z,87.43
2023-03-11T05:45:40.686Z,86.77
2023-03-11T05:48:07.764Z,87.22
2023-03-11T05:50:37.882Z,87.31
2023-03-11T05:53:05.480Z,87.24
2023-03-11T05:55:32.652Z,87.96
2023-03-11T05:58:00.440Z,87.52
2023-03-11T06:00:29.412Z,87.29
2023-03-11T06:02:58.492Z,85.80
2023-03-11T06:05:25.519Z,86.92
2023-03-11T06:07:54.428Z,87.23
2023-03-11T06:10:23.081Z,87.33
2023-03-11T06:12:50.117Z,87.30
2023-03-11T06:15:22.723Z,87.44
2023-03-11T06:17:49.974Z,87.89
2023-03-11T06:20:17.980Z,87.74
2023-03-11T06:22:47.773Z,87.88
2023-03-11T06:25:14.894Z,88.13
2023-03-11T06:27:44.641Z,88.01
2023-03-11T06:30:12.526Z,88.04
2023-03-11T06:32:49.210Z,87.71
2023-03-11T06:35:16.261Z,87.95
2023-03-11T06:37:43.223Z,87.64
2023-03-11T06:40:12.249Z,88.27
2023-03-11T06:42:39.866Z,88.15
2023-03-11T06:45:10.013Z,88.45
2023-03-11T06:47:38.677Z,88.21
2023-03-11T06:50:08.560Z,88.39
2023-03-11T06:52:35.868Z,88.59
2023-03-11T06:55:03.923Z,88.41
2023-03-11T06:57:33.586Z,88.36
2023-03-11T07:00:07.276Z,88.76
2023-03-11T07:02:35.771Z,89.21
2023-03-11T07:05:03.346Z,89.20
2023-03-11T07:07:30.877Z,89.32
2023-03-11T07:09:57.969Z,89.48
2023-03-11T07:12:25.389Z,89.29
2023-03-11T07:14:59.886Z,89.49
2023-03-11T07:17:28.426Z,89.64
2023-03-11T07:19:55.446Z,89.93
2023-03-11T07:22:22.375Z,90.18
2023-03-11T07:24:49.720Z,90.24
2023-03-11T07:27:17.535Z,90.16
2023-03-11T07:29:44.698Z,90.14
2023-03-11T07:32:11.599Z,90.41
2023-03-11T07:34:38.536Z,90.58
2023-03-11T07:37:05.557Z,90.63
2023-03-11T07:39:32.670Z,90.54
2023-03-11T07:41:59.586Z,90.56
2023-03-11T07:44:34.512Z,90.91
2023-03-11T07:47:05.792Z,90.70
2023-03-11T07:49:33.671Z,91.04
2023-03-11T07:52:00.713Z,91.45
2023-03-11T07:54:27.776Z,91.65
2023-03-11T07:56:54.742Z,91.71
2023-03-11T07:59:21.763Z,91.50
2023-03-11T08:01:48.752Z,91.80
2023-03-11T08:04:16.982Z,91.90
2023-03-11T08:06:47.152Z,92.17
2023-03-11T08:09:14.349Z,92.26
2023-03-11T08:11:41.737Z,92.38
2023-03-11T08:14:08.907Z,92.77
2023-03-11T08:16:35.895Z,92.93
2023-03-11T08:19:03.519Z,93.08
2023-03-11T08:21:32.134Z,93.56
2023-03-11T08:24:02.268Z,93.63
2023-03-11T08:26:30.804Z,94.01
2023-03-11T08:28:59.089Z,94.11
2023-03-11T08:31:30.615Z,93.83
2023-03-11T08:34:09.745Z,93.31
2023-03-11T08:36:36.951Z,93.70
2023-03-11T08:39:04.179Z,93.41
2023-03-11T08:41:31.379Z,93.34
2023-03-11T08:43:58.476Z,93.69
2023-03-11T08:46:31.394Z,93.37
2023-03-11T08:49:01.210Z,93.82
2023-03-11T08:51:30.420Z,93.64
2023-03-11T08:53:57.973Z,93.41
2023-03-11T08:56:25.668Z,93.68
2023-03-11T08:58:52.785Z,94.01
2023-03-11T09:01:20.348Z,93.75
2023-03-11T09:03:47.544Z,93.62
2023-03-11T09:06:16.821Z,93.98
2023-03-11T09:08:45.026Z,93.87
2023-03-11T09:11:13.492Z,94.07
2023-03-11T09:13:41.621Z,94.11
2023-03-11T09:16:15.527Z,93.89
2023-03-11T09:18:43.030Z,94.16
2023-03-11T09:21:10.643Z,94.37
2023-03-11T09:23:37.890Z,94.47
2023-03-11T09:26:05.088Z,94.60
2023-03-11T09:28:32.317Z,95.14
2023-03-11T09:30:59.466Z,95.33
2023-03-11T09:33:26.710Z,95.73
2023-03-11T09:35:53.742Z,95.84
2023-03-11T09:38:20.733Z,95.54
2023-03-11T09:41:55.367Z,94.24
2023-03-11T09:44:54.220Z,94.84
2023-03-11T09:47:41.622Z,95.21
2023-03-11T09:50:35.156Z,95.02
2023-03-11T09:53:13.711Z,95.18
2023-03-11T09:55:53.626Z,95.34
2023-03-11T09:58:42.905Z,95.22
2023-03-11T10:01:42.880Z,94.62
2023-03-11T10:04:29.158Z,94.44
2023-03-11T10:06:57.202Z,95.29
2023-03-11T12:22:18.976Z,98.54
2023-03-11T12:25:22.134Z,99.10
2023-03-11T12:28:32.809Z,96.83
2023-03-11T12:31:09.278Z,96.35
2023-03-11T12:33:51.169Z,96.63
2023-03-11T12:36:42.164Z,97.03
2023-03-11T12:39:25.153Z,96.55
2023-03-11T12:42:22.697Z,95.96
2023-03-11T12:44:50.712Z,94.89
2023-03-11T12:47:25.365Z,97.22
2023-03-11T12:49:55.646Z,97.49
2023-03-11T12:52:26.543Z,96.49
2023-03-11T12:54:56.449Z,98.58
2023-03-11T12:57:36.981Z,99.35
2023-03-11T13:00:28.743Z,97.52
2023-03-11T13:03:35.255Z,97.56
2023-03-11T13:06:42.773Z,96.94
2023-03-11T13:09:17.581Z,97.21
2023-03-11T13:11:48.059Z,98.06
2023-03-11T13:14:14.974Z,96.32
2023-03-11T13:16:43.759Z,97.53
2023-03-11T13:19:35.692Z,96.29
2023-03-11T13:22:06.301Z,95.12
2023-03-11T13:24:33.081Z,94.38
2023-03-11T13:27:00.459Z,92.72
2023-03-11T13:29:47.828Z,94.18
2023-03-11T13:32:48.508Z,95.73
2023-03-11T13:35:33.429Z,96.66
2023-03-11T13:38:45.322Z,98.33
2023-03-11T13:41:19.144Z,96.53
2023-03-11T13:43:51.300Z,94.64
2023-03-11T13:46:38.332Z,95.14
2023-03-11T13:49:46.242Z,95.30
2023-03-11T13:52:24.467Z,94.71
2023-03-11T13:54:59.549Z,96.50
2023-03-11T13:57:36.259Z,95.13
2023-03-11T14:00:19.207Z,96.50
2023-03-11T14:02:55.051Z,96.80
2023-03-11T14:05:30.555Z,93.54
2023-03-11T14:08:32.489Z,96.13
2023-03-11T14:11:02.745Z,96.10
2023-03-11T14:13:32.989Z,95.53
2023-03-11T14:16:33.336Z,95.00
2023-03-11T14:19:15.889Z,97.58
2023-03-11T14:21:49.916Z,95.13
2023-03-11T14:24:28.249Z,96.38
2023-03-11T14:26:59.096Z,96.20
2023-03-11T14:29:43.653Z,97.38
2023-03-11T14:32:31.450Z,96.18
2023-03-11T14:34:59.073Z,93.65
2023-03-11T14:37:34.514Z,95.10
2023-03-11T14:40:01.709Z,95.10
2023-03-11T14:42:36.607Z,95.54
2023-03-11T14:45:13.921Z,94.36
2023-03-11T14:48:03.790Z,94.90
2023-03-11T14:50:35.106Z,94.28
2023-03-11T14:53:32.842Z,94.33
2023-03-11T14:56:05.840Z,96.05
2023-03-11T14:58:51.056Z,94.98
2023-03-11T15:01:27.457Z,95.97
2023-03-11T15:04:13.198Z,94.96
2023-03-11T15:06:43.948Z,95.59
2023-03-11T15:09:21.188Z,95.40
2023-03-11T15:12:00.735Z,94.09
2023-03-11T15:14:33.091Z,94.25
2023-03-11T15:17:36.209Z,95.14
2023-03-11T15:20:27.350Z,95.87
2023-03-11T15:23:00.469Z,95.08
2023-03-11T15:25:31.773Z,95.65
2023-03-11T15:27:59.087Z,95.09
2023-03-11T15:30:31.408Z,94.98
2023-03-11T15:32:58.909Z,94.13
2023-03-11T15:35:30.811Z,94.42
2023-03-11T15:38:25.449Z,94.70
2023-03-11T15:41:01.549Z,94.55
2023-03-11T15:43:32.634Z,94.70
2023-03-11T15:46:02.107Z,94.37
2023-03-11T15:48:31.125Z,95.00
2023-03-11T15:51:00.011Z,95.05
2023-03-11T15:53:28.978Z,94.60
2023-03-11T15:56:07.401Z,95.11
2023-03-11T15:58:38.052Z,95.53
2023-03-11T16:01:05.256Z,94.96
2023-03-11T16:03:32.301Z,94.97
2023-03-11T16:05:59.263Z,93.03
2023-03-11T16:08:26.297Z,94.18
2023-03-11T16:10:53.446Z,93.68
2023-03-11T16:13:20.449Z,93.74
2023-03-11T16:15:48.096Z,93.47
2023-03-11T16:18:15.761Z,93.75
2023-03-11T16:20:51.696Z,93.21
2023-03-11T16:23:30.721Z,92.99
2023-03-11T16:26:03.011Z,92.74
2023-03-11T16:28:30.021Z,92.34
2023-03-11T16:30:57.298Z,91.71
2023-03-11T16:33:24.250Z,92.15
2023-03-11T16:35:51.266Z,92.43
2023-03-11T16:38:19.462Z,92.67
2023-03-11T16:41:02.507Z,91.80
2023-03-11T16:43:31.561Z,91.78
2023-03-11T16:45:58.539Z,91.21
2023-03-11T16:48:25.806Z,92.12
2023-03-11T16:50:52.734Z,90.80
2023-03-11T16:53:19.728Z,90.04
2023-03-11T16:55:47.460Z,91.16
2023-03-11T16:58:15.402Z,91.45
2023-03-11T17:00:43.322Z,91.12
2023-03-11T17:03:15.942Z,90.75
2023-03-11T17:05:43.722Z,90.92
2023-03-11T17:08:11.357Z,90.26
2023-03-11T17:10:43.380Z,90.21
2023-03-11T17:13:13.870Z,90.13
2023-03-11T17:15:44.323Z,90.27
2023-03-11T17:18:12.340Z,90.19
2023-03-11T17:20:40.908Z,89.81
2023-03-11T17:23:07.863Z,89.95
2023-03-11T17:25:34.806Z,89.96
2023-03-11T17:28:01.775Z,89.92
2023-03-11T17:30:38.832Z,89.85
2023-03-11T17:33:05.908Z,89.90
2023-03-11T17:35:32.964Z,89.51
2023-03-11T17:38:00.023Z,89.37
2023-03-11T17:40:29.136Z,89.12
2023-03-11T17:42:56.481Z,89.18
2023-03-11T17:45:23.390Z,88.87
2023-03-11T17:47:50.489Z,88.49
2023-03-11T17:50:17.931Z,88.65
2023-03-11T17:52:47.206Z,88.41
2023-03-11T17:55:14.167Z,88.02
2023-03-11T17:57:45.491Z,87.79
2023-03-11T18:00:14.692Z,87.60
2023-03-11T18:02:42.122Z,87.72
2023-03-11T18:05:09.354Z,87.45
2023-03-11T18:07:40.985Z,87.29
2023-03-11T18:10:09.712Z,87.03
2023-03-11T18:12:37.568Z,87.40
2023-03-11T18:15:14.172Z,86.55
2023-03-11T18:17:41.399Z,86.70
2023-03-11T18:20:09.218Z,86.79
2023-03-11T18:22:37.253Z,86.62
2023-03-11T18:25:05.088Z,87.17
2023-03-11T18:27:31.997Z,87.10
2023-03-11T18:30:00.036Z,86.98
2023-03-11T18:32:27.027Z,87.03
2023-03-11T18:34:54.052Z,87.21
2023-03-11T18:37:21.007Z,86.98
2023-03-11T18:39:47.977Z,86.53
2023-03-11T18:42:15.881Z,86.84
2023-03-11T18:44:42.936Z,86.63
2023-03-11T18:47:09.936Z,86.33
2023-03-11T18:49:36.919Z,86.69
2023-03-11T18:52:04.045Z,86.92
2023-03-11T18:54:31.497Z,86.60
2023-03-11T18:56:58.403Z,86.51
2023-03-11T18:59:27.422Z,86.19
2023-03-11T19:01:54.657Z,86.47
2023-03-11T19:04:21.835Z,86.72
2023-03-11T19:06:50.099Z,86.23
2023-03-11T19:09:18.398Z,86.33
2023-03-11T19:11:46.062Z,86.28
2023-03-11T19:14:13.462Z,86.01
2023-03-11T19:16:40.484Z,86.26
2023-03-11T19:19:07.413Z,85.69
2023-03-11T19:21:34.434Z,86.75
2023-03-11T19:24:01.400Z,86.40
2023-03-11T19:26:43.830Z,86.22
2023-03-11T19:29:12.526Z,86.41
2023-03-11T19:31:39.571Z,86.20
2023-03-11T19:34:06.586Z,85.92
2023-03-11T19:36:33.542Z,86.11
2023-03-11T19:39:00.497Z,86.01
2023-03-11T19:41:27.488Z,86.49
2023-03-11T19:43:54.460Z,86.08
2023-03-11T19:46:22.491Z,86.23
2023-03-11T19:48:49.602Z,85.86
2023-03-11T19:51:17.501Z,86.63
2023-03-11T19:53:44.567Z,86.57
2023-03-11T19:56:11.549Z,86.35
2023-03-11T19:58:40.337Z,86.14
2023-03-11T20:01:07.314Z,86.38
2023-03-11T20:03:34.341Z,86.18
2023-03-11T20:06:06.134Z,85.71
2023-03-11T20:08:36.649Z,86.17
2023-03-11T20:11:05.612Z,85.99
2023-03-11T20:13:35.394Z,86.05
2023-03-11T20:16:10.274Z,85.66
2023-03-11T20:18:37.641Z,86.30
2023-03-11T20:21:10.850Z,86.37
2023-03-11T20:23:39.353Z,86.06
2023-03-11T20:26:09.812Z,86.10
2023-03-11T20:28:37.166Z,86.19
2023-03-11T20:31:09.544Z,85.61
2023-03-11T20:33:38.421Z,86.18
2023-03-11T20:36:08.880Z,85.82
2023-03-11T20:38:36.310Z,86.63
2023-03-11T20:41:08.257Z,86.30
2023-03-11T20:43:37.200Z,86.50
2023-03-11T20:46:05.922Z,86.40
2023-03-11T20:48:34.090Z,86.45
2023-03-11T20:51:02.820Z,86.39
2023-03-11T20:53:31.408Z,86.21
2023-03-11T20:56:14.579Z,85.57
2023-03-11T20:58:43.233Z,86.70
2023-03-11T21:01:26.081Z,85.43
2023-03-11T21:03:58.984Z,86.52
2023-03-11T21:06:33.000Z,86.09
2023-03-11T21:09:04.645Z,86.19
2023-03-11T21:11:31.875Z,86.57
2023-03-11T21:13:59.369Z,86.87
2023-03-11T21:16:27.010Z,86.68
2023-03-11T21:18:54.260Z,86.33
2023-03-11T21:21:21.820Z,86.20
2023-03-11T21:23:49.699Z,86.07
2023-03-11T21:26:17.589Z,86.33
2023-03-11T21:28:46.406Z,86.40
2023-03-11T21:31:20.127Z,85.61
2023-03-11T21:33:48.035Z,85.99
2023-03-11T21:36:16.340Z,86.09
2023-03-11T21:38:43.753Z,86.42
2023-03-11T21:41:17.906Z,85.44
2023-03-11T21:43:45.780Z,86.22
2023-03-11T21:46:16.990Z,86.02
2023-03-11T21:48:45.148Z,86.56
2023-03-11T21:51:12.708Z,86.21
2023-03-11T21:53:39.796Z,86.09
2023-03-11T21:56:07.566Z,85.76
2023-03-11T21:58:34.717Z,85.53
2023-03-11T22:01:02.569Z,86.16
2023-03-11T22:03:30.664Z,85.77
2023-03-11T22:06:03.990Z,85.74
2023-03-11T22:08:31.420Z,86.10
2023-03-11T22:10:58.588Z,86.23
2023-03-11T22:13:25.827Z,85.92
2023-03-11T22:15:52.969Z,86.22
2023-03-11T22:18:21.633Z,86.16
2023-03-11T22:20:50.240Z,85.97
2023-03-11T22:23:20.325Z,85.39
2023-03-11T22:25:47.416Z,86.13
2023-03-11T22:28:14.747Z,85.83
2023-03-11T22:30:41.777Z,85.93
2023-03-11T22:33:08.697Z,85.52
2023-03-11T22:35:35.720Z,86.12
2023-03-11T22:38:03.417Z,85.65
2023-03-11T22:40:30.399Z,85.99
2023-03-11T22:42:57.448Z,85.89
2023-03-11T22:45:24.453Z,85.65
2023-03-11T22:47:53.041Z,85.76
2023-03-11T22:50:20.136Z,85.89
2023-03-11T22:52:50.183Z,85.73
2023-03-11T22:55:17.238Z,85.93
2023-03-11T22:57:44.280Z,85.91
2023-03-11T23:00:20.694Z,85.68
2023-03-11T23:02:52.818Z,86.01
2023-03-11T23:05:20.409Z,85.95
2023-03-11T23:07:47.751Z,85.73
2023-03-11T23:10:20.794Z,86.00
2023-03-11T23:12:48.796Z,85.64
2023-03-11T23:15:18.807Z,85.38
2023-03-11T23:17:46.000Z,85.28
2023-03-11T23:20:16.394Z,85.84
2023-03-11T23:22:44.124Z,85.87
2023-03-11T23:25:15.916Z,85.55
2023-03-11T23:27:45.644Z,85.73
2023-03-11T23:30:16.590Z,85.45
2023-03-11T23:32:45.167Z,85.43
2023-03-11T23:35:13.063Z,85.87
2023-03-11T23:37:40.500Z,85.62
2023-03-11T23:40:09.563Z,85.62
2023-03-11T23:42:36.516Z,85.86
2023-03-11T23:45:03.662Z,85.67
2023-03-11T23:47:30.817Z,85.94
2023-03-11T23:49:57.894Z,85.93
2023-03-11T23:52:25.010Z,85.36
2023-03-11T23:54:52.044Z,84.71
2023-03-11T23:57:19.364Z,85.20
2023-03-11T23:59:46.290Z,85.60
